sensor_id;sensor_type;location;lat;lon;timestamp;temperature;humidity
19348;DHT22;9810;52.480;9.806;2022-12-18T00:02:27;-5.80;99.90
19348;DHT22;9810;52.480;9.806;2022-12-18T00:04:55;-6.00;99.90
19348;DHT22;9810;52.480;9.806;2022-12-18T00:07:24;-5.80;99.90
19348;DHT22;9810;52.480;9.806;2022-12-18T00:09:52;-5.80;99.90
19348;DHT22;9810;52.480;9.806;2022-12-18T00:12:19;-5.80;99.90
19348;DHT22;9810;52.480;9.806;2022-12-18T00:14:46;-5.70;99.90
19348;DHT22;9810;52.480;9.806;2022-12-18T00:17:14;-5.70;99.90
19348;DHT22;9810;52.480;9.806;2022-12-18T00:19:43;-5.70;99.90
19348;DHT22;9810;52.480;9.806;2022-12-18T00:22:10;-5.80;99.90
19348;DHT22;9810;52.480;9.806;2022-12-18T00:24:38;-6.00;99.90
19348;DHT22;9810;52.480;9.806;2022-12-18T00:27:05;-6.10;99.90
19348;DHT22;9810;52.480;9.806;2022-12-18T00:29:32;-6.00;99.90
19348;DHT22;9810;52.480;9.806;2022-12-18T00:32:00;-6.10;99.90
19348;DHT22;9810;52.480;9.806;2022-12-18T00:34:27;-6.30;99.90
19348;DHT22;9810;52.480;9.806;2022-12-18T00:36:56;-6.60;99.90
19348;DHT22;9810;52.480;9.806;2022-12-18T00:39:23;-6.50;99.90
19348;DHT22;9810;52.480;9.806;2022-12-18T00:41:50;-6.70;99.90
19348;DHT22;9810;52.480;9.806;2022-12-18T00:44:35;-6.60;99.90
19348;DHT22;9810;52.480;9.806;2022-12-18T00:47:02;-6.60;99.90
19348;DHT22;9810;52.480;9.806;2022-12-18T00:49:30;-6.70;99.90
19348;DHT22;9810;52.480;9.806;2022-12-18T00:51:59;-6.90;99.90
19348;DHT22;9810;52.480;9.806;2022-12-18T00:54:26;-7.00;99.90
19348;DHT22;9810;52.480;9.806;2022-12-18T00:56:53;-7.10;99.90
19348;DHT22;9810;52.480;9.806;2022-12-18T00:59:22;-6.80;99.90
19348;DHT22;9810;52.480;9.806;2022-12-18T01:01:49;-6.50;99.90
19348;DHT22;9810;52.480;9.806;2022-12-18T01:04:16;-6.40;99.90
19348;DHT22;9810;52.480;9.806;2022-12-18T01:06:43;-6.40;99.90
19348;DHT22;9810;52.480;9.806;2022-12-18T01:09:12;-6.40;99.90
19348;DHT22;9810;52.480;9.806;2022-12-18T01:11:40;-6.40;99.90
19348;DHT22;9810;52.480;9.806;2022-12-18T01:14:07;-6.40;99.90
19348;DHT22;9810;52.480;9.806;2022-12-18T01:16:35;-6.40;99.90
19348;DHT22;9810;52.480;9.806;2022-12-18T01:19:02;-6.70;99.90
19348;DHT22;9810;52.480;9.806;2022-12-18T01:21:30;-6.90;99.90
19348;DHT22;9810;52.480;9.806;2022-12-18T01:23:57;-7.00;99.90
19348;DHT22;9810;52.480;9.806;2022-12-18T01:26:26;-7.20;99.90
19348;DHT22;9810;52.480;9.806;2022-12-18T01:28:55;-7.00;99.90
19348;DHT22;9810;52.480;9.806;2022-12-18T01:31:24;-6.50;99.90
19348;DHT22;9810;52.480;9.806;2022-12-18T01:33:52;-6.10;99.90
19348;DHT22;9810;52.480;9.806;2022-12-18T01:36:21;-6.10;99.90
19348;DHT22;9810;52.480;9.806;2022-12-18T01:38:49;-6.00;99.90
19348;DHT22;9810;52.480;9.806;2022-12-18T01:41:21;-5.90;99.90
19348;DHT22;9810;52.480;9.806;2022-12-18T01:43:53;-5.90;99.90
19348;DHT22;9810;52.480;9.806;2022-12-18T01:46:23;-5.90;99.90
19348;DHT22;9810;52.480;9.806;2022-12-18T01:48:55;-5.90;99.90
19348;DHT22;9810;52.480;9.806;2022-12-18T01:51:23;-5.90;99.90
19348;DHT22;9810;52.480;9.806;2022-12-18T01:53:51;-5.90;99.90
19348;DHT22;9810;52.480;9.806;2022-12-18T01:56:20;-5.90;99.90
19348;DHT22;9810;52.480;9.806;2022-12-18T01:58:56;-6.00;99.90
19348;DHT22;9810;52.480;9.806;2022-12-18T02:01:25;-6.00;99.90
19348;DHT22;9810;52.480;9.806;2022-12-18T02:03:53;-5.90;99.90
19348;DHT22;9810;52.480;9.806;2022-12-18T02:06:23;-6.00;99.90
19348;DHT22;9810;52.480;9.806;2022-12-18T02:09:06;-6.10;99.90
19348;DHT22;9810;52.480;9.806;2022-12-18T02:11:42;-6.00;99.90
19348;DHT22;9810;52.480;9.806;2022-12-18T02:14:21;-6.10;99.90
19348;DHT22;9810;52.480;9.806;2022-12-18T02:17:20;-6.20;99.90
19348;DHT22;9810;52.480;9.806;2022-12-18T02:20:15;-6.30;99.90
19348;DHT22;9810;52.480;9.806;2022-12-18T02:22:51;-6.30;99.90
19348;DHT22;9810;52.480;9.806;2022-12-18T02:25:39;-6.40;99.90
19348;DHT22;9810;52.480;9.806;2022-12-18T02:28:11;-6.40;99.90
19348;DHT22;9810;52.480;9.806;2022-12-18T02:30:40;-6.50;99.90
19348;DHT22;9810;52.480;9.806;2022-12-18T02:33:09;-6.80;99.90
19348;DHT22;9810;52.480;9.806;2022-12-18T02:35:38;-6.80;99.90
19348;DHT22;9810;52.480;9.806;2022-12-18T02:38:07;-6.90;99.90
19348;DHT22;9810;52.480;9.806;2022-12-18T02:40:35;-6.80;99.90
19348;DHT22;9810;52.480;9.806;2022-12-18T02:43:08;-7.10;99.90
19348;DHT22;9810;52.480;9.806;2022-12-18T02:45:35;-7.20;99.90
19348;DHT22;9810;52.480;9.806;2022-12-18T02:48:03;-7.00;99.90
19348;DHT22;9810;52.480;9.806;2022-12-18T02:50:35;-6.90;99.90
19348;DHT22;9810;52.480;9.806;2022-12-18T02:53:13;-6.80;99.90
19348;DHT22;9810;52.480;9.806;2022-12-18T02:55:52;-6.80;99.90
19348;DHT22;9810;52.480;9.806;2022-12-18T02:58:33;-6.90;99.90
19348;DHT22;9810;52.480;9.806;2022-12-18T03:01:05;-6.90;99.90
19348;DHT22;9810;52.480;9.806;2022-12-18T03:03:39;-6.60;99.90
19348;DHT22;9810;52.480;9.806;2022-12-18T03:06:12;-6.70;99.90
19348;DHT22;9810;52.480;9.806;2022-12-18T03:08:43;-6.60;99.90
19348;DHT22;9810;52.480;9.806;2022-12-18T03:11:13;-6.80;99.90
19348;DHT22;9810;52.480;9.806;2022-12-18T03:13:44;-6.70;99.90
19348;DHT22;9810;52.480;9.806;2022-12-18T03:16:17;-6.70;99.90
19348;DHT22;9810;52.480;9.806;2022-12-18T03:18:50;-6.70;99.90
19348;DHT22;9810;52.480;9.806;2022-12-18T03:21:23;-6.60;99.90
19348;DHT22;9810;52.480;9.806;2022-12-18T03:23:52;-6.50;99.90
19348;DHT22;9810;52.480;9.806;2022-12-18T03:26:23;-6.30;99.90
19348;DHT22;9810;52.480;9.806;2022-12-18T03:28:54;-6.30;99.90
19348;DHT22;9810;52.480;9.806;2022-12-18T03:31:23;-6.40;99.90
19348;DHT22;9810;52.480;9.806;2022-12-18T03:33:54;-6.50;99.90
19348;DHT22;9810;52.480;9.806;2022-12-18T03:36:22;-6.80;99.90
19348;DHT22;9810;52.480;9.806;2022-12-18T03:38:50;-6.90;99.90
19348;DHT22;9810;52.480;9.806;2022-12-18T03:41:22;-6.90;99.90
19348;DHT22;9810;52.480;9.806;2022-12-18T03:44:03;-6.90;99.90
19348;DHT22;9810;52.480;9.806;2022-12-18T03:46:41;-7.10;99.90
19348;DHT22;9810;52.480;9.806;2022-12-18T03:49:11;-7.20;99.90
19348;DHT22;9810;52.480;9.806;2022-12-18T03:51:45;-7.30;99.90
19348;DHT22;9810;52.480;9.806;2022-12-18T03:54:15;-7.30;99.90
19348;DHT22;9810;52.480;9.806;2022-12-18T03:56:47;-7.40;99.90
19348;DHT22;9810;52.480;9.806;2022-12-18T03:59:18;-7.60;99.90
19348;DHT22;9810;52.480;9.806;2022-12-18T04:01:48;-7.70;99.90
19348;DHT22;9810;52.480;9.806;2022-12-18T04:04:18;-7.60;99.90
19348;DHT22;9810;52.480;9.806;2022-12-18T04:06:47;-7.60;99.90
19348;DHT22;9810;52.480;9.806;2022-12-18T04:09:15;-7.60;99.90
19348;DHT22;9810;52.480;9.806;2022-12-18T04:11:43;-7.50;99.90
19348;DHT22;9810;52.480;9.806;2022-12-18T04:14:10;-7.60;99.90
19348;DHT22;9810;52.480;9.806;2022-12-18T04:16:39;-7.60;99.90
19348;DHT22;9810;52.480;9.806;2022-12-18T04:19:07;-7.70;99.90
19348;DHT22;9810;52.480;9.806;2022-12-18T04:21:34;-7.50;99.90
19348;DHT22;9810;52.480;9.806;2022-12-18T04:24:01;-7.60;99.90
19348;DHT22;9810;52.480;9.806;2022-12-18T04:26:29;-7.70;99.90
19348;DHT22;9810;52.480;9.806;2022-12-18T04:28:56;-7.80;99.90
19348;DHT22;9810;52.480;9.806;2022-12-18T04:31:23;-8.00;99.90
19348;DHT22;9810;52.480;9.806;2022-12-18T04:33:52;-8.10;99.90
19348;DHT22;9810;52.480;9.806;2022-12-18T04:36:19;-7.80;99.90
19348;DHT22;9810;52.480;9.806;2022-12-18T04:38:47;-7.20;99.90
19348;DHT22;9810;52.480;9.806;2022-12-18T04:41:14;-7.00;99.90
19348;DHT22;9810;52.480;9.806;2022-12-18T04:43:42;-6.80;99.90
19348;DHT22;9810;52.480;9.806;2022-12-18T04:46:11;-6.60;99.90
19348;DHT22;9810;52.480;9.806;2022-12-18T04:48:38;-6.60;99.90
19348;DHT22;9810;52.480;9.806;2022-12-18T04:51:07;-6.80;99.90
19348;DHT22;9810;52.480;9.806;2022-12-18T04:53:35;-7.10;99.90
19348;DHT22;9810;52.480;9.806;2022-12-18T04:56:04;-7.20;99.90
19348;DHT22;9810;52.480;9.806;2022-12-18T04:58:32;-6.80;99.90
19348;DHT22;9810;52.480;9.806;2022-12-18T05:01:00;-6.60;99.90
19348;DHT22;9810;52.480;9.806;2022-12-18T05:03:27;-6.50;99.90
19348;DHT22;9810;52.480;9.806;2022-12-18T05:05:54;-6.50;99.90
19348;DHT22;9810;52.480;9.806;2022-12-18T05:08:23;-6.50;99.90
19348;DHT22;9810;52.480;9.806;2022-12-18T05:10:58;-6.60;99.90
19348;DHT22;9810;52.480;9.806;2022-12-18T05:13:26;-6.60;99.90
19348;DHT22;9810;52.480;9.806;2022-12-18T05:15:54;-6.70;99.90
19348;DHT22;9810;52.480;9.806;2022-12-18T05:18:21;-6.80;99.90
19348;DHT22;9810;52.480;9.806;2022-12-18T05:20:49;-6.80;99.90
19348;DHT22;9810;52.480;9.806;2022-12-18T05:23:17;-7.00;99.90
19348;DHT22;9810;52.480;9.806;2022-12-18T05:25:50;-7.10;99.90
19348;DHT22;9810;52.480;9.806;2022-12-18T05:28:17;-7.30;99.90
19348;DHT22;9810;52.480;9.806;2022-12-18T05:30:48;-7.20;99.90
19348;DHT22;9810;52.480;9.806;2022-12-18T05:33:15;-7.50;99.90
19348;DHT22;9810;52.480;9.806;2022-12-18T05:35:43;-7.90;99.90
19348;DHT22;9810;52.480;9.806;2022-12-18T05:38:10;-8.20;99.90
19348;DHT22;9810;52.480;9.806;2022-12-18T05:40:41;-8.30;99.90
19348;DHT22;9810;52.480;9.806;2022-12-18T05:43:10;-8.40;99.90
19348;DHT22;9810;52.480;9.806;2022-12-18T05:45:38;-8.30;99.90
19348;DHT22;9810;52.480;9.806;2022-12-18T05:48:06;-8.40;99.90
19348;DHT22;9810;52.480;9.806;2022-12-18T05:50:34;-8.20;99.90
19348;DHT22;9810;52.480;9.806;2022-12-18T05:53:02;-8.00;99.90
19348;DHT22;9810;52.480;9.806;2022-12-18T05:55:32;-8.00;99.90
19348;DHT22;9810;52.480;9.806;2022-12-18T05:57:59;-7.90;99.90
19348;DHT22;9810;52.480;9.806;2022-12-18T06:00:30;-7.90;99.90
19348;DHT22;9810;52.480;9.806;2022-12-18T06:02:57;-8.00;99.90
19348;DHT22;9810;52.480;9.806;2022-12-18T06:05:25;-8.20;99.90
19348;DHT22;9810;52.480;9.806;2022-12-18T06:07:52;-8.30;99.90
19348;DHT22;9810;52.480;9.806;2022-12-18T06:10:20;-8.40;99.90
19348;DHT22;9810;52.480;9.806;2022-12-18T06:12:47;-8.20;99.90
19348;DHT22;9810;52.480;9.806;2022-12-18T06:15:14;-8.20;99.90
19348;DHT22;9810;52.480;9.806;2022-12-18T06:17:43;-8.20;99.90
19348;DHT22;9810;52.480;9.806;2022-12-18T06:20:11;-8.40;99.90
19348;DHT22;9810;52.480;9.806;2022-12-18T06:22:38;-8.50;99.90
19348;DHT22;9810;52.480;9.806;2022-12-18T06:25:06;-8.60;99.90
19348;DHT22;9810;52.480;9.806;2022-12-18T06:27:34;-8.70;99.90
19348;DHT22;9810;52.480;9.806;2022-12-18T06:30:02;-8.80;99.90
19348;DHT22;9810;52.480;9.806;2022-12-18T06:32:29;-9.10;99.90
19348;DHT22;9810;52.480;9.806;2022-12-18T06:34:58;-9.20;99.90
19348;DHT22;9810;52.480;9.806;2022-12-18T06:37:26;-9.20;99.90
19348;DHT22;9810;52.480;9.806;2022-12-18T06:39:54;-9.00;99.90
19348;DHT22;9810;52.480;9.806;2022-12-18T06:42:22;-8.90;99.90
19348;DHT22;9810;52.480;9.806;2022-12-18T06:44:49;-8.80;99.90
19348;DHT22;9810;52.480;9.806;2022-12-18T06:47:17;-9.00;99.90
19348;DHT22;9810;52.480;9.806;2022-12-18T06:49:44;-9.10;99.90
19348;DHT22;9810;52.480;9.806;2022-12-18T06:52:15;-9.20;99.90
19348;DHT22;9810;52.480;9.806;2022-12-18T06:54:43;-9.10;99.90
19348;DHT22;9810;52.480;9.806;2022-12-18T06:57:10;-9.00;99.90
19348;DHT22;9810;52.480;9.806;2022-12-18T06:59:38;-8.90;99.90
19348;DHT22;9810;52.480;9.806;2022-12-18T07:02:05;-8.80;99.90
19348;DHT22;9810;52.480;9.806;2022-12-18T07:04:33;-8.90;99.90
19348;DHT22;9810;52.480;9.806;2022-12-18T07:07:00;-9.00;99.90
19348;DHT22;9810;52.480;9.806;2022-12-18T07:09:29;-9.10;99.90
19348;DHT22;9810;52.480;9.806;2022-12-18T07:11:56;-9.20;99.90
19348;DHT22;9810;52.480;9.806;2022-12-18T07:14:24;-9.20;99.90
19348;DHT22;9810;52.480;9.806;2022-12-18T07:16:51;-9.40;99.90
19348;DHT22;9810;52.480;9.806;2022-12-18T07:19:18;-9.70;99.90
19348;DHT22;9810;52.480;9.806;2022-12-18T07:21:49;-9.80;99.90
19348;DHT22;9810;52.480;9.806;2022-12-18T07:24:17;-9.70;99.90
19348;DHT22;9810;52.480;9.806;2022-12-18T07:26:47;-9.60;99.90
19348;DHT22;9810;52.480;9.806;2022-12-18T07:29:15;-9.30;99.90
19348;DHT22;9810;52.480;9.806;2022-12-18T07:31:42;-9.00;99.90
19348;DHT22;9810;52.480;9.806;2022-12-18T07:34:10;-8.80;99.90
19348;DHT22;9810;52.480;9.806;2022-12-18T07:36:38;-8.70;99.90
19348;DHT22;9810;52.480;9.806;2022-12-18T07:39:06;-8.60;99.90
19348;DHT22;9810;52.480;9.806;2022-12-18T07:41:33;-8.70;99.90
19348;DHT22;9810;52.480;9.806;2022-12-18T07:44:02;-8.80;99.90
19348;DHT22;9810;52.480;9.806;2022-12-18T07:46:30;-9.00;99.90
19348;DHT22;9810;52.480;9.806;2022-12-18T07:48:58;-9.00;99.90
19348;DHT22;9810;52.480;9.806;2022-12-18T07:51:27;-9.10;99.90
19348;DHT22;9810;52.480;9.806;2022-12-18T07:53:55;-9.20;99.90
19348;DHT22;9810;52.480;9.806;2022-12-18T07:56:23;-9.20;99.90
19348;DHT22;9810;52.480;9.806;2022-12-18T07:58:51;-9.00;99.90
19348;DHT22;9810;52.480;9.806;2022-12-18T08:01:20;-9.20;99.90
19348;DHT22;9810;52.480;9.806;2022-12-18T08:03:47;-9.20;99.90
19348;DHT22;9810;52.480;9.806;2022-12-18T08:06:14;-9.50;99.90
19348;DHT22;9810;52.480;9.806;2022-12-18T08:08:42;-9.40;99.90
19348;DHT22;9810;52.480;9.806;2022-12-18T08:11:09;-9.30;99.90
19348;DHT22;9810;52.480;9.806;2022-12-18T08:13:36;-9.40;99.90
19348;DHT22;9810;52.480;9.806;2022-12-18T08:16:05;-9.20;99.90
19348;DHT22;9810;52.480;9.806;2022-12-18T08:18:36;-9.10;99.90
19348;DHT22;9810;52.480;9.806;2022-12-18T08:21:08;-8.40;99.90
19348;DHT22;9810;52.480;9.806;2022-12-18T08:23:35;-8.20;99.90
19348;DHT22;9810;52.480;9.806;2022-12-18T08:26:03;-8.20;99.90
19348;DHT22;9810;52.480;9.806;2022-12-18T08:28:30;-8.10;99.90
19348;DHT22;9810;52.480;9.806;2022-12-18T08:30:58;-7.80;99.90
19348;DHT22;9810;52.480;9.806;2022-12-18T08:33:25;-7.10;99.90
19348;DHT22;9810;52.480;9.806;2022-12-18T08:35:54;-6.60;99.90
19348;DHT22;9810;52.480;9.806;2022-12-18T08:38:21;-5.50;99.90
19348;DHT22;9810;52.480;9.806;2022-12-18T08:40:49;-4.80;99.90
19348;DHT22;9810;52.480;9.806;2022-12-18T08:43:16;-4.50;99.90
19348;DHT22;9810;52.480;9.806;2022-12-18T08:46:00;-4.20;99.90
19348;DHT22;9810;52.480;9.806;2022-12-18T08:48:28;-4.10;99.90
19348;DHT22;9810;52.480;9.806;2022-12-18T08:50:57;-4.00;99.90
19348;DHT22;9810;52.480;9.806;2022-12-18T08:53:26;-3.90;99.90
19348;DHT22;9810;52.480;9.806;2022-12-18T08:55:56;-4.10;99.90
19348;DHT22;9810;52.480;9.806;2022-12-18T08:58:23;-4.30;99.90
19348;DHT22;9810;52.480;9.806;2022-12-18T09:00:51;-4.40;99.90
19348;DHT22;9810;52.480;9.806;2022-12-18T09:03:19;-4.50;99.90
19348;DHT22;9810;52.480;9.806;2022-12-18T09:05:48;-4.30;99.90
19348;DHT22;9810;52.480;9.806;2022-12-18T09:08:17;-4.30;99.90
19348;DHT22;9810;52.480;9.806;2022-12-18T09:10:45;-4.40;99.90
19348;DHT22;9810;52.480;9.806;2022-12-18T09:13:13;-4.40;99.90
19348;DHT22;9810;52.480;9.806;2022-12-18T09:15:41;-4.40;99.90
19348;DHT22;9810;52.480;9.806;2022-12-18T09:18:09;-4.40;99.90
19348;DHT22;9810;52.480;9.806;2022-12-18T09:20:37;-4.20;99.90
19348;DHT22;9810;52.480;9.806;2022-12-18T09:23:05;-4.20;99.90
19348;DHT22;9810;52.480;9.806;2022-12-18T09:25:34;-4.00;99.90
19348;DHT22;9810;52.480;9.806;2022-12-18T09:28:03;-3.30;99.90
19348;DHT22;9810;52.480;9.806;2022-12-18T09:30:31;-2.50;99.90
19348;DHT22;9810;52.480;9.806;2022-12-18T09:32:59;-1.70;99.90
19348;DHT22;9810;52.480;9.806;2022-12-18T09:35:27;-0.80;99.90
19348;DHT22;9810;52.480;9.806;2022-12-18T09:37:54;0.10;99.90
19348;DHT22;9810;52.480;9.806;2022-12-18T09:40:24;0.60;99.90
19348;DHT22;9810;52.480;9.806;2022-12-18T09:42:57;0.80;99.90
19348;DHT22;9810;52.480;9.806;2022-12-18T09:45:27;1.20;99.90
19348;DHT22;9810;52.480;9.806;2022-12-18T09:47:56;1.20;99.90
19348;DHT22;9810;52.480;9.806;2022-12-18T09:50:35;1.10;99.90
19348;DHT22;9810;52.480;9.806;2022-12-18T09:53:06;1.90;99.90
19348;DHT22;9810;52.480;9.806;2022-12-18T09:55:38;2.80;99.90
19348;DHT22;9810;52.480;9.806;2022-12-18T09:58:15;3.10;99.90
19348;DHT22;9810;52.480;9.806;2022-12-18T10:00:44;2.70;99.90
19348;DHT22;9810;52.480;9.806;2022-12-18T10:03:12;1.90;99.90
19348;DHT22;9810;52.480;9.806;2022-12-18T10:05:49;1.70;99.90
19348;DHT22;9810;52.480;9.806;2022-12-18T10:08:25;0.90;99.90
19348;DHT22;9810;52.480;9.806;2022-12-18T10:10:59;0.90;99.90
19348;DHT22;9810;52.480;9.806;2022-12-18T10:13:36;0.60;99.90
19348;DHT22;9810;52.480;9.806;2022-12-18T10:16:11;0.30;99.90
19348;DHT22;9810;52.480;9.806;2022-12-18T10:19:04;-0.30;99.90
19348;DHT22;9810;52.480;9.806;2022-12-18T10:21:45;0.40;99.90
19348;DHT22;9810;52.480;9.806;2022-12-18T10:24:22;0.30;99.90
19348;DHT22;9810;52.480;9.806;2022-12-18T10:26:52;0.50;99.90
19348;DHT22;9810;52.480;9.806;2022-12-18T10:29:21;0.70;99.90
19348;DHT22;9810;52.480;9.806;2022-12-18T10:31:49;0.30;99.90
19348;DHT22;9810;52.480;9.806;2022-12-18T10:34:16;0.00;99.90
19348;DHT22;9810;52.480;9.806;2022-12-18T10:36:44;0.20;99.90
19348;DHT22;9810;52.480;9.806;2022-12-18T10:39:16;0.10;99.90
19348;DHT22;9810;52.480;9.806;2022-12-18T10:41:43;0.50;99.90
19348;DHT22;9810;52.480;9.806;2022-12-18T10:44:14;0.50;99.90
19348;DHT22;9810;52.480;9.806;2022-12-18T10:46:45;0.60;99.90
19348;DHT22;9810;52.480;9.806;2022-12-18T10:49:22;0.70;99.90
19348;DHT22;9810;52.480;9.806;2022-12-18T10:51:51;0.20;99.90
19348;DHT22;9810;52.480;9.806;2022-12-18T10:54:31;0.20;99.90
19348;DHT22;9810;52.480;9.806;2022-12-18T10:57:14;-0.10;99.90
19348;DHT22;9810;52.480;9.806;2022-12-18T10:59:51;0.00;99.90
19348;DHT22;9810;52.480;9.806;2022-12-18T11:02:28;0.00;99.90
19348;DHT22;9810;52.480;9.806;2022-12-18T11:05:04;0.20;99.90
19348;DHT22;9810;52.480;9.806;2022-12-18T11:07:48;-0.20;99.90
19348;DHT22;9810;52.480;9.806;2022-12-18T11:10:17;-0.30;99.90
19348;DHT22;9810;52.480;9.806;2022-12-18T11:12:45;-0.20;99.90
19348;DHT22;9810;52.480;9.806;2022-12-18T11:15:16;0.30;99.90
19348;DHT22;9810;52.480;9.806;2022-12-18T11:17:48;0.30;99.90
19348;DHT22;9810;52.480;9.806;2022-12-18T11:20:24;0.40;99.90
19348;DHT22;9810;52.480;9.806;2022-12-18T11:22:59;-0.10;99.90
19348;DHT22;9810;52.480;9.806;2022-12-18T11:25:27;-0.30;99.90
19348;DHT22;9810;52.480;9.806;2022-12-18T11:27:59;-0.40;99.90
19348;DHT22;9810;52.480;9.806;2022-12-18T11:30:28;-0.30;99.90
19348;DHT22;9810;52.480;9.806;2022-12-18T11:33:04;-0.30;99.90
19348;DHT22;9810;52.480;9.806;2022-12-18T11:35:42;-0.10;99.90
19348;DHT22;9810;52.480;9.806;2022-12-18T11:38:17;0.30;99.90
19348;DHT22;9810;52.480;9.806;2022-12-18T11:40:51;0.60;99.90
19348;DHT22;9810;52.480;9.806;2022-12-18T11:43:27;0.50;99.90
19348;DHT22;9810;52.480;9.806;2022-12-18T11:46:00;0.50;99.90
19348;DHT22;9810;52.480;9.806;2022-12-18T11:48:33;0.60;99.90
19348;DHT22;9810;52.480;9.806;2022-12-18T11:51:05;0.50;99.90
19348;DHT22;9810;52.480;9.806;2022-12-18T11:53:36;0.50;99.90
19348;DHT22;9810;52.480;9.806;2022-12-18T11:56:22;0.00;99.90
19348;DHT22;9810;52.480;9.806;2022-12-18T11:58:59;-0.30;99.90
19348;DHT22;9810;52.480;9.806;2022-12-18T12:01:40;0.10;99.90
19348;DHT22;9810;52.480;9.806;2022-12-18T12:04:40;0.10;99.90
19348;DHT22;9810;52.480;9.806;2022-12-18T12:07:21;0.10;99.90
19348;DHT22;9810;52.480;9.806;2022-12-18T12:09:59;0.00;99.90
19348;DHT22;9810;52.480;9.806;2022-12-18T12:12:38;0.00;99.90
19348;DHT22;9810;52.480;9.806;2022-12-18T12:15:27;-0.10;99.90
19348;DHT22;9810;52.480;9.806;2022-12-18T12:18:03;0.00;99.90
19348;DHT22;9810;52.480;9.806;2022-12-18T12:20:45;-0.20;99.90
19348;DHT22;9810;52.480;9.806;2022-12-18T12:23:20;-0.10;99.90
19348;DHT22;9810;52.480;9.806;2022-12-18T12:25:52;-0.20;99.90
19348;DHT22;9810;52.480;9.806;2022-12-18T12:28:37;-0.20;99.90
19348;DHT22;9810;52.480;9.806;2022-12-18T12:31:16;-0.20;99.90
19348;DHT22;9810;52.480;9.806;2022-12-18T12:33:53;-0.60;99.90
19348;DHT22;9810;52.480;9.806;2022-12-18T12:36:35;-0.50;99.90
19348;DHT22;9810;52.480;9.806;2022-12-18T12:39:08;-0.30;99.90
19348;DHT22;9810;52.480;9.806;2022-12-18T12:41:37;-0.40;99.90
19348;DHT22;9810;52.480;9.806;2022-12-18T12:44:25;-0.40;99.90
19348;DHT22;9810;52.480;9.806;2022-12-18T12:46:57;-0.50;99.90
19348;DHT22;9810;52.480;9.806;2022-12-18T12:49:29;-0.60;99.90
19348;DHT22;9810;52.480;9.806;2022-12-18T12:52:05;-0.60;99.90
19348;DHT22;9810;52.480;9.806;2022-12-18T12:54:34;-0.80;99.90
19348;DHT22;9810;52.480;9.806;2022-12-18T12:57:09;-0.70;99.90
19348;DHT22;9810;52.480;9.806;2022-12-18T12:59:47;-0.80;99.90
19348;DHT22;9810;52.480;9.806;2022-12-18T13:02:23;-0.90;99.90
19348;DHT22;9810;52.480;9.806;2022-12-18T13:04:59;-1.00;99.90
19348;DHT22;9810;52.480;9.806;2022-12-18T13:07:35;-1.00;99.90
19348;DHT22;9810;52.480;9.806;2022-12-18T13:10:24;-1.10;99.90
19348;DHT22;9810;52.480;9.806;2022-12-18T13:12:54;-1.20;99.90
19348;DHT22;9810;52.480;9.806;2022-12-18T13:15:25;-1.10;99.90
19348;DHT22;9810;52.480;9.806;2022-12-18T13:18:13;-1.10;99.90
19348;DHT22;9810;52.480;9.806;2022-12-18T13:20:42;-1.10;99.90
19348;DHT22;9810;52.480;9.806;2022-12-18T13:23:34;-1.10;99.90
19348;DHT22;9810;52.480;9.806;2022-12-18T13:26:30;-1.10;99.90
19348;DHT22;9810;52.480;9.806;2022-12-18T13:28:59;-1.20;99.90
19348;DHT22;9810;52.480;9.806;2022-12-18T13:31:58;-1.30;99.90
19348;DHT22;9810;52.480;9.806;2022-12-18T13:34:27;-1.40;99.90
19348;DHT22;9810;52.480;9.806;2022-12-18T13:36:57;-1.30;99.90
19348;DHT22;9810;52.480;9.806;2022-12-18T13:39:45;-1.30;99.90
19348;DHT22;9810;52.480;9.806;2022-12-18T13:42:34;-1.30;99.90
19348;DHT22;9810;52.480;9.806;2022-12-18T13:45:42;-1.40;99.90
19348;DHT22;9810;52.480;9.806;2022-12-18T13:48:18;-1.50;99.90
19348;DHT22;9810;52.480;9.806;2022-12-18T13:50:49;-1.50;99.90
19348;DHT22;9810;52.480;9.806;2022-12-18T13:53:22;-1.70;99.90
19348;DHT22;9810;52.480;9.806;2022-12-18T13:55:52;-1.70;99.90
19348;DHT22;9810;52.480;9.806;2022-12-18T13:58:19;-1.60;99.90
19348;DHT22;9810;52.480;9.806;2022-12-18T14:00:47;-1.60;99.90
19348;DHT22;9810;52.480;9.806;2022-12-18T14:03:20;-1.60;99.90
19348;DHT22;9810;52.480;9.806;2022-12-18T14:05:54;-1.80;99.90
19348;DHT22;9810;52.480;9.806;2022-12-18T14:08:23;-1.80;99.90
19348;DHT22;9810;52.480;9.806;2022-12-18T14:10:56;-1.70;99.90
19348;DHT22;9810;52.480;9.806;2022-12-18T14:13:27;-2.00;99.90
19348;DHT22;9810;52.480;9.806;2022-12-18T14:15:55;-2.10;99.90
19348;DHT22;9810;52.480;9.806;2022-12-18T14:18:24;-2.00;99.90
19348;DHT22;9810;52.480;9.806;2022-12-18T14:20:55;-1.90;99.90
19348;DHT22;9810;52.480;9.806;2022-12-18T14:23:32;-1.80;99.90
19348;DHT22;9810;52.480;9.806;2022-12-18T14:26:03;-1.80;99.90
19348;DHT22;9810;52.480;9.806;2022-12-18T14:28:46;-1.80;99.90
19348;DHT22;9810;52.480;9.806;2022-12-18T14:31:18;-1.80;99.90
19348;DHT22;9810;52.480;9.806;2022-12-18T14:33:45;-1.80;99.90
19348;DHT22;9810;52.480;9.806;2022-12-18T14:36:16;-1.80;99.90
19348;DHT22;9810;52.480;9.806;2022-12-18T14:38:48;-1.80;99.90
19348;DHT22;9810;52.480;9.806;2022-12-18T14:41:19;-1.90;99.90
19348;DHT22;9810;52.480;9.806;2022-12-18T14:43:48;-2.00;99.90
19348;DHT22;9810;52.480;9.806;2022-12-18T14:46:32;-1.90;99.90
19348;DHT22;9810;52.480;9.806;2022-12-18T14:49:02;-2.00;99.90
19348;DHT22;9810;52.480;9.806;2022-12-18T14:51:31;-2.00;99.90
19348;DHT22;9810;52.480;9.806;2022-12-18T14:54:01;-2.30;99.90
19348;DHT22;9810;52.480;9.806;2022-12-18T14:56:31;-2.10;99.90
19348;DHT22;9810;52.480;9.806;2022-12-18T14:59:00;-2.10;99.90
19348;DHT22;9810;52.480;9.806;2022-12-18T15:01:31;-2.10;99.90
19348;DHT22;9810;52.480;9.806;2022-12-18T15:04:01;-2.10;99.90
19348;DHT22;9810;52.480;9.806;2022-12-18T15:06:33;-2.20;99.90
19348;DHT22;9810;52.480;9.806;2022-12-18T15:09:04;-2.10;99.90
19348;DHT22;9810;52.480;9.806;2022-12-18T15:11:42;-2.20;99.90
19348;DHT22;9810;52.480;9.806;2022-12-18T15:14:30;-2.30;99.90
19348;DHT22;9810;52.480;9.806;2022-12-18T15:16:58;-2.30;99.90
19348;DHT22;9810;52.480;9.806;2022-12-18T15:19:34;-2.40;99.90
19348;DHT22;9810;52.480;9.806;2022-12-18T15:22:02;-2.40;99.90
19348;DHT22;9810;52.480;9.806;2022-12-18T15:24:31;-2.40;99.90
19348;DHT22;9810;52.480;9.806;2022-12-18T15:27:01;-2.40;99.90
19348;DHT22;9810;52.480;9.806;2022-12-18T15:29:28;-2.30;99.90
19348;DHT22;9810;52.480;9.806;2022-12-18T15:32:01;-2.40;99.90
19348;DHT22;9810;52.480;9.806;2022-12-18T15:34:29;-2.40;99.90
19348;DHT22;9810;52.480;9.806;2022-12-18T15:36:57;-2.50;99.90
19348;DHT22;9810;52.480;9.806;2022-12-18T15:39:24;-2.50;99.90
19348;DHT22;9810;52.480;9.806;2022-12-18T15:41:51;-2.40;99.90
19348;DHT22;9810;52.480;9.806;2022-12-18T15:44:37;-2.50;99.90
19348;DHT22;9810;52.480;9.806;2022-12-18T15:47:10;-2.50;99.90
19348;DHT22;9810;52.480;9.806;2022-12-18T15:49:38;-2.40;99.90
19348;DHT22;9810;52.480;9.806;2022-12-18T15:52:06;-2.40;99.90
19348;DHT22;9810;52.480;9.806;2022-12-18T15:54:33;-2.40;99.90
19348;DHT22;9810;52.480;9.806;2022-12-18T15:57:17;-2.50;99.90
19348;DHT22;9810;52.480;9.806;2022-12-18T15:59:54;-2.40;99.90
19348;DHT22;9810;52.480;9.806;2022-12-18T16:02:24;-2.50;99.90
19348;DHT22;9810;52.480;9.806;2022-12-18T16:04:51;-2.50;99.90
19348;DHT22;9810;52.480;9.806;2022-12-18T16:07:19;-2.50;99.90
19348;DHT22;9810;52.480;9.806;2022-12-18T16:09:47;-2.50;99.90
19348;DHT22;9810;52.480;9.806;2022-12-18T16:12:17;-2.50;99.90
19348;DHT22;9810;52.480;9.806;2022-12-18T16:14:45;-2.50;99.90